2PS0 weather

Rotelle Heliport
West Point, Pennsylvania, United States

Public forecast

Using degrees Fahrenheit for public forecast. Weather courtesy of forecast.io.

METAR (pilot weather report)

Closest report is Wings Field, 3.9 nm (7.3 km) SSE. Retrieved 2019/07/18 18:35 UTC (21 minutes ago):

KLOM 181835Z AUTO 7SM SCT065 SCT080 SCT100 29/24 A2987 RMK AO2 T02920240

TAF (pilot weather forecast)

Closest forecast is Northeast Philadelphia Airport, 15.0 nm (27.7 km) ESE. Retrieved 2019/07/18 18:24 UTC (32 minutes ago):

TAF KPNE 181722Z 1818/1918 VRB02KT P6SM VCTS SCT025CB BKN100 TEMPO 1818/1822 3SM SHRA BKN020 FM182200 33005KT P6SM VCSH SCT020 BKN040 FM182300 01005KT P6SM SCT040 BKN200 FM190200 VRB02KT P6SM SCT020 BKN200 FM190900 VRB03KT 4SM BR BKN012 FM191300 24005KT 6SM HZ FEW050